createdAt,value
2023-03-06T00:02:16.763Z,66.14
2023-03-06T00:05:10.334Z,66.00
2023-03-06T00:08:02.396Z,65.94
2023-03-06T00:10:54.395Z,65.77
2023-03-06T00:13:46.510Z,65.66
2023-03-06T00:16:38.526Z,65.93
2023-03-06T00:19:30.530Z,65.61
2023-03-06T00:22:22.556Z,65.61
2023-03-06T00:25:17.922Z,65.59
2023-03-06T00:27:58.629Z,65.95
2023-03-06T00:30:50.964Z,65.83
2023-03-06T00:33:43.531Z,65.59
2023-03-06T00:36:35.509Z,65.85
2023-03-06T00:39:27.501Z,65.72
2023-03-06T00:42:20.536Z,65.58
2023-03-06T00:45:13.787Z,65.81
2023-03-06T00:47:48.501Z,65.89
2023-03-06T00:50:40.559Z,65.88
2023-03-06T00:53:32.584Z,65.72
2023-03-06T00:56:25.173Z,65.59
2023-03-06T00:59:17.279Z,65.66
2023-03-06T01:01:49.490Z,65.79
2023-03-06T01:04:42.078Z,65.80
2023-03-06T01:07:24.116Z,66.00
2023-03-06T01:10:16.208Z,65.71
2023-03-06T01:12:58.637Z,65.68
2023-03-06T01:15:50.729Z,66.08
2023-03-06T01:18:27.960Z,66.19
2023-03-06T01:21:19.968Z,66.07
2023-03-06T01:24:12.111Z,66.21
2023-03-06T01:27:04.280Z,66.32
2023-03-06T01:29:56.364Z,66.25
2023-03-06T01:32:49.176Z,66.37
2023-03-06T01:35:23.826Z,66.36
2023-03-06T01:38:16.671Z,66.57
2023-03-06T01:40:51.406Z,66.60
2023-03-06T01:43:44.405Z,66.47
2023-03-06T01:46:42.062Z,66.46
2023-03-06T01:49:21.059Z,66.47
2023-03-06T01:52:16.655Z,66.43
2023-03-06T01:55:12.233Z,66.47
2023-03-06T01:58:11.411Z,66.54
2023-03-06T02:01:03.472Z,66.44
2023-03-06T02:03:56.331Z,66.50
2023-03-06T02:06:40.678Z,66.56
2023-03-06T02:09:34.697Z,66.80
2023-03-06T02:12:27.424Z,66.71
2023-03-06T02:15:23.448Z,66.76
2023-03-06T02:18:11.443Z,66.87
2023-03-06T02:21:06.928Z,66.62
2023-03-06T02:24:09.756Z,66.65
2023-03-06T02:27:03.391Z,66.65
2023-03-06T02:29:56.113Z,66.59
2023-03-06T02:32:48.260Z,66.88
2023-03-06T02:35:41.766Z,66.75
2023-03-06T02:38:40.656Z,67.03
2023-03-06T02:41:32.921Z,67.21
2023-03-06T02:44:27.406Z,67.07
2023-03-06T02:47:19.532Z,66.85
2023-03-06T02:50:12.793Z,67.18
2023-03-06T02:53:05.086Z,67.12
2023-03-06T02:55:57.369Z,67.24
2023-03-06T02:58:49.545Z,67.15
2023-03-06T03:01:41.689Z,67.19
2023-03-06T03:04:33.823Z,67.36
2023-03-06T03:07:08.965Z,67.17
2023-03-06T03:10:01.126Z,67.30
2023-03-06T03:12:36.225Z,67.12
2023-03-06T03:15:28.280Z,67.36
2023-03-06T03:18:20.351Z,67.41
2023-03-06T03:20:55.447Z,67.20
2023-03-06T03:23:47.601Z,67.52
2023-03-06T03:26:39.635Z,67.54
2023-03-06T03:29:15.438Z,67.36
2023-03-06T03:32:08.392Z,67.69
2023-03-06T03:35:00.669Z,67.43
2023-03-06T03:37:54.681Z,67.30
2023-03-06T03:40:46.817Z,67.32
2023-03-06T03:43:39.049Z,67.39
2023-03-06T03:46:13.732Z,67.20
2023-03-06T03:49:05.888Z,67.25
2023-03-06T03:51:57.882Z,67.28
2023-03-06T03:54:49.855Z,67.33
2023-03-06T03:57:43.114Z,67.46
2023-03-06T04:00:35.151Z,67.54
2023-03-06T04:03:27.183Z,67.66
2023-03-06T04:06:19.425Z,67.62
2023-03-06T04:09:11.530Z,67.71
2023-03-06T04:12:03.714Z,67.40
2023-03-06T04:14:55.760Z,67.48
2023-03-06T04:17:47.801Z,67.30
2023-03-06T04:20:40.248Z,67.17
2023-03-06T04:23:32.644Z,67.40
2023-03-06T04:26:24.680Z,67.62
2023-03-06T04:29:17.072Z,67.78
2023-03-06T04:32:10.334Z,67.66
2023-03-06T04:35:02.368Z,67.77
2023-03-06T04:37:36.997Z,67.92
2023-03-06T04:40:31.277Z,68.26
2023-03-06T04:43:23.554Z,68.27
2023-03-06T04:46:15.608Z,68.39
2023-03-06T04:49:08.022Z,68.14
2023-03-06T04:52:00.145Z,67.96
2023-03-06T04:54:34.799Z,68.14
2023-03-06T04:57:26.821Z,68.17
2023-03-06T05:00:21.450Z,68.15
2023-03-06T05:03:04.697Z,68.13
2023-03-06T05:05:56.773Z,68.16
2023-03-06T05:08:49.133Z,67.80
2023-03-06T05:11:26.096Z,68.06
2023-03-06T05:14:18.074Z,68.02
2023-03-06T05:16:58.999Z,68.07
2023-03-06T05:19:51.080Z,68.14
2023-03-06T05:22:43.381Z,68.09
2023-03-06T05:25:35.486Z,68.18
2023-03-06T05:28:28.720Z,68.06
2023-03-06T05:31:20.804Z,68.10
2023-03-06T05:34:16.244Z,68.00
2023-03-06T05:37:08.439Z,68.05
2023-03-06T05:40:01.310Z,68.18
2023-03-06T05:42:53.363Z,68.31
2023-03-06T05:45:46.270Z,68.13
2023-03-06T05:48:38.571Z,67.99
2023-03-06T05:51:30.797Z,68.16
2023-03-06T05:54:13.240Z,68.29
2023-03-06T05:57:06.144Z,68.31
2023-03-06T05:59:58.320Z,68.16
2023-03-06T06:02:50.521Z,68.34
2023-03-06T06:05:43.135Z,68.23
2023-03-06T06:08:37.113Z,67.96
2023-03-06T06:11:13.524Z,67.78
2023-03-06T06:14:05.546Z,67.84
2023-03-06T06:16:57.728Z,67.66
2023-03-06T06:19:49.713Z,68.12
2023-03-06T06:22:41.710Z,68.04
2023-03-06T06:25:34.100Z,67.90
2023-03-06T06:28:26.135Z,67.81
2023-03-06T06:31:18.154Z,67.99
2023-03-06T06:34:11.581Z,67.85
2023-03-06T06:36:47.120Z,68.20
2023-03-06T06:39:39.265Z,67.86
2023-03-06T06:42:37.755Z,67.88
2023-03-06T06:45:31.781Z,67.53
2023-03-06T06:48:23.846Z,67.36
2023-03-06T06:51:16.091Z,66.97
2023-03-06T06:53:59.474Z,66.82
2023-03-06T06:56:31.445Z,66.53
2023-03-06T06:59:24.113Z,66.36
2023-03-06T07:02:01.274Z,66.13
2023-03-06T07:04:52.322Z,66.02
2023-03-06T07:07:50.936Z,65.62
2023-03-06T07:10:43.042Z,65.72
2023-03-06T07:13:35.440Z,65.48
2023-03-06T07:16:17.302Z,65.43
2023-03-06T07:19:09.857Z,65.26
2023-03-06T07:21:52.233Z,64.54
2023-03-06T07:24:44.356Z,64.15
2023-03-06T07:27:36.461Z,63.76
2023-03-06T07:30:28.512Z,63.06
2023-03-06T07:33:20.612Z,62.87
2023-03-06T07:36:14.021Z,62.82
2023-03-06T07:39:06.490Z,62.60
2023-03-06T07:41:48.817Z,62.34
2023-03-06T07:44:40.850Z,61.56
2023-03-06T07:47:18.166Z,61.54
2023-03-06T07:50:03.047Z,61.31
2023-03-06T07:52:46.210Z,61.14
2023-03-06T07:55:34.362Z,61.03
2023-03-06T07:58:15.100Z,60.86
2023-03-06T08:01:09.451Z,60.64
2023-03-06T08:03:44.945Z,60.76
2023-03-06T08:06:21.608Z,60.57
2023-03-06T08:09:04.836Z,60.54
2023-03-06T08:11:42.302Z,59.78
2023-03-06T08:14:37.075Z,58.69
2023-03-06T08:17:11.604Z,57.87
2023-03-06T08:20:03.573Z,57.90
2023-03-06T08:22:55.528Z,57.41
2023-03-06T08:25:47.466Z,56.20
2023-03-06T08:28:39.536Z,55.38
2023-03-06T08:31:33.620Z,54.71
2023-03-06T08:34:18.951Z,53.43
2023-03-06T08:37:10.925Z,51.37
2023-03-06T08:40:04.587Z,50.14
2023-03-06T08:42:56.673Z,48.74
2023-03-06T08:45:54.311Z,47.87
2023-03-06T08:48:47.700Z,47.07
2023-03-06T08:51:23.056Z,46.40
2023-03-06T08:53:57.993Z,45.86
2023-03-06T08:56:34.737Z,44.96
2023-03-06T08:59:10.476Z,43.55
2023-03-06T09:02:03.972Z,42.42
2023-03-06T09:04:56.118Z,41.35
2023-03-06T09:07:43.630Z,40.33
2023-03-06T09:10:36.102Z,38.97
2023-03-06T09:13:19.329Z,38.19
2023-03-06T09:16:01.417Z,37.34
2023-03-06T09:18:54.295Z,36.79
2023-03-06T09:21:31.705Z,35.77
2023-03-06T09:24:03.598Z,34.96
2023-03-06T09:26:55.651Z,34.45
2023-03-06T09:29:47.646Z,34.18
2023-03-06T09:32:39.745Z,33.64
2023-03-06T09:35:32.006Z,33.12
2023-03-06T09:38:26.363Z,32.42
2023-03-06T09:41:26.312Z,31.37
2023-03-06T09:44:20.954Z,30.41
2023-03-06T09:47:18.375Z,29.52
2023-03-06T09:50:19.829Z,28.68
2023-03-06T09:53:04.404Z,27.50
2023-03-06T09:56:01.980Z,27.54
2023-03-06T09:58:42.927Z,27.35
2023-03-06T10:01:40.928Z,26.46
2023-03-06T10:04:26.477Z,26.07
2023-03-06T10:07:23.696Z,25.44
2023-03-06T10:10:02.173Z,24.99
2023-03-06T10:12:47.257Z,24.77
2023-03-06T10:15:42.508Z,24.16
2023-03-06T10:18:31.657Z,23.73
2023-03-06T10:21:40.176Z,23.41
2023-03-06T10:24:43.351Z,22.64
2023-03-06T10:27:37.947Z,22.35
2023-03-06T10:30:34.817Z,22.19
2023-03-06T10:33:41.333Z,21.57
2023-03-06T10:36:33.270Z,22.09
2023-03-06T10:39:25.433Z,22.13
2023-03-06T10:42:17.751Z,21.78
2023-03-06T10:45:10.596Z,21.45
2023-03-06T10:48:18.544Z,21.17
2023-03-06T10:51:20.380Z,20.75
2023-03-06T10:53:59.924Z,21.39
2023-03-06T10:56:36.102Z,22.07
2023-03-06T10:59:14.802Z,22.66
2023-03-06T11:01:58.799Z,23.34
2023-03-06T11:04:55.282Z,23.24
2023-03-06T11:07:32.231Z,24.02
2023-03-06T11:10:24.488Z,24.30
2023-03-06T11:13:24.800Z,24.48
2023-03-06T11:16:06.702Z,24.73
2023-03-06T11:18:43.169Z,24.99
2023-03-06T11:21:37.328Z,25.19
2023-03-06T11:24:16.767Z,25.76
2023-03-06T11:27:24.846Z,25.64
2023-03-06T11:30:23.371Z,25.54
2023-03-06T11:33:01.864Z,25.92
2023-03-06T11:35:51.567Z,26.10
2023-03-06T11:38:35.229Z,26.56
2023-03-06T11:41:19.248Z,27.23
2023-03-06T11:44:23.304Z,27.27
2023-03-06T11:47:15.914Z,27.02
2023-03-06T11:50:22.375Z,27.36
2023-03-06T11:53:16.621Z,27.70
2023-03-06T11:55:58.900Z,28.03
2023-03-06T11:59:23.395Z,28.35
2023-03-06T12:02:26.428Z,28.93
2023-03-06T12:05:24.299Z,29.38
2023-03-06T12:08:44.286Z,29.90
2023-03-06T12:11:33.253Z,30.44
2023-03-06T12:14:40.182Z,31.40
2023-03-06T12:17:22.694Z,31.75
2023-03-06T12:20:21.026Z,31.91
2023-03-06T12:23:26.713Z,32.51
2023-03-06T12:26:40.342Z,33.05
2023-03-06T12:29:59.810Z,33.46
2023-03-06T12:33:02.106Z,33.55
2023-03-06T12:36:13.798Z,33.73
2023-03-06T12:39:15.864Z,33.99
2023-03-06T12:42:11.297Z,34.16
2023-03-06T12:45:18.532Z,34.27
2023-03-06T12:48:17.282Z,34.62
2023-03-06T12:50:59.018Z,34.92
2023-03-06T12:53:52.833Z,35.33
2023-03-06T12:56:46.172Z,35.73
2023-03-06T12:59:43.983Z,35.94
2023-03-06T13:03:05.859Z,35.88
2023-03-06T13:06:13.927Z,36.17
2023-03-06T13:09:17.831Z,35.80
2023-03-06T13:12:25.833Z,35.56
2023-03-06T13:16:06.239Z,35.33
2023-03-06T13:19:01.982Z,35.54
2023-03-06T13:22:14.092Z,35.45
2023-03-06T13:25:39.024Z,35.79
2023-03-06T13:28:40.235Z,35.91
2023-03-06T13:32:05.741Z,36.19
2023-03-06T13:34:58.137Z,36.38
2023-03-06T13:37:53.715Z,36.38
2023-03-06T13:40:39.024Z,36.68
2023-03-06T13:43:32.012Z,37.14
2023-03-06T13:46:28.736Z,37.09
2023-03-06T13:49:21.149Z,37.11
2023-03-06T13:52:24.058Z,37.27
2023-03-06T13:55:17.954Z,37.34
2023-03-06T13:58:30.755Z,37.38
2023-03-06T14:01:28.957Z,37.92
2023-03-06T14:04:34.632Z,38.12
2023-03-06T14:07:25.114Z,38.12
2023-03-06T14:10:24.053Z,38.38
2023-03-06T14:13:07.884Z,38.71
2023-03-06T14:15:59.813Z,38.89
2023-03-06T14:18:47.565Z,39.14
2023-03-06T14:21:31.854Z,39.23
2023-03-06T14:24:22.870Z,39.16
2023-03-06T14:26:57.602Z,39.52
2023-03-06T14:29:49.861Z,39.65
2023-03-06T14:32:42.959Z,39.50
2023-03-06T14:35:26.724Z,39.42
2023-03-06T14:38:17.288Z,39.58
2023-03-06T14:41:11.384Z,39.79
2023-03-06T14:44:17.999Z,39.90
2023-03-06T14:47:28.581Z,40.10
2023-03-06T14:50:29.537Z,42.50
2023-03-06T14:53:26.029Z,44.42
2023-03-06T14:56:21.197Z,45.63
2023-03-06T14:59:17.455Z,46.88
2023-03-06T15:02:12.684Z,47.90
2023-03-06T15:04:50.038Z,48.32
2023-03-06T15:07:43.055Z,48.83
2023-03-06T15:10:37.586Z,49.35
2023-03-06T15:13:31.779Z,49.70
2023-03-06T15:16:30.393Z,49.77
2023-03-06T15:19:06.281Z,50.29
2023-03-06T15:21:41.391Z,50.26
2023-03-06T15:24:37.948Z,50.82
2023-03-06T15:27:32.270Z,51.11
2023-03-06T15:30:32.990Z,51.01
2023-03-06T15:33:27.834Z,51.04
2023-03-06T15:36:17.808Z,51.15
2023-03-06T15:39:33.776Z,50.98
2023-03-06T15:42:28.024Z,50.92
2023-03-06T15:45:22.486Z,51.26
2023-03-06T15:48:19.196Z,51.36
2023-03-06T15:51:11.288Z,51.50
2023-03-06T15:54:11.857Z,51.58
2023-03-06T15:56:51.704Z,51.57
2023-03-06T15:59:36.960Z,51.58
2023-03-06T16:02:29.079Z,51.79
2023-03-06T16:05:22.246Z,51.70
2023-03-06T16:08:14.926Z,51.82
2023-03-06T16:11:07.319Z,51.98
2023-03-06T16:13:45.331Z,52.19
2023-03-06T16:16:39.574Z,52.32
2023-03-06T16:19:31.700Z,52.72
2023-03-06T16:22:23.711Z,52.92
2023-03-06T16:25:15.561Z,53.03
2023-03-06T16:28:12.322Z,52.97
2023-03-06T16:31:01.658Z,53.39
2023-03-06T16:33:36.399Z,53.47
2023-03-06T16:36:30.134Z,53.95
2023-03-06T16:39:24.612Z,54.18
2023-03-06T16:41:56.463Z,54.23
2023-03-06T16:44:48.611Z,54.33
2023-03-06T16:47:29.922Z,54.20
2023-03-06T16:50:33.028Z,54.49
2023-03-06T16:53:25.002Z,54.46
2023-03-06T16:56:15.700Z,54.37
2023-03-06T16:59:07.865Z,54.65
2023-03-06T17:01:56.090Z,54.82
2023-03-06T17:04:48.105Z,54.79
2023-03-06T17:07:22.804Z,54.95
2023-03-06T17:10:18.756Z,55.14
2023-03-06T17:13:12.404Z,55.52
2023-03-06T17:16:04.642Z,55.57
2023-03-06T17:18:58.191Z,55.58
2023-03-06T17:21:50.699Z,55.62
2023-03-06T17:24:42.813Z,55.73
2023-03-06T17:27:25.410Z,56.26
2023-03-06T17:30:18.049Z,56.52
2023-03-06T17:32:52.214Z,56.67
2023-03-06T17:35:44.174Z,56.85
2023-03-06T17:38:19.704Z,57.11
2023-03-06T17:41:13.312Z,57.51
2023-03-06T17:44:05.516Z,57.43
2023-03-06T17:46:42.542Z,57.81
2023-03-06T17:49:34.628Z,57.99
2023-03-06T17:52:15.403Z,58.23
2023-03-06T17:55:09.023Z,58.32
2023-03-06T17:58:01.132Z,58.58
2023-03-06T18:00:53.488Z,58.95
2023-03-06T18:03:28.180Z,59.12
2023-03-06T18:06:22.090Z,59.41
2023-03-06T18:09:10.374Z,59.67
2023-03-06T18:11:51.114Z,59.74
2023-03-06T18:14:43.195Z,59.91
2023-03-06T18:17:24.378Z,60.22
2023-03-06T18:20:17.631Z,60.36
2023-03-06T18:23:09.828Z,60.49
2023-03-06T18:25:52.661Z,60.75
2023-03-06T18:28:47.330Z,60.51
2023-03-06T18:31:41.704Z,60.72
2023-03-06T18:34:33.700Z,60.76
2023-03-06T18:37:26.141Z,60.95
2023-03-06T18:40:01.138Z,61.21
2023-03-06T18:42:35.921Z,61.24
2023-03-06T18:45:28.028Z,61.41
2023-03-06T18:48:16.404Z,61.68
2023-03-06T18:51:10.723Z,61.87
2023-03-06T18:54:04.473Z,61.89
2023-03-06T18:56:47.357Z,61.94
2023-03-06T18:59:28.773Z,62.15
2023-03-06T19:02:21.123Z,62.16
2023-03-06T19:04:56.248Z,62.20
2023-03-06T19:07:48.784Z,62.23
2023-03-06T19:10:42.276Z,62.52
2023-03-06T19:13:34.398Z,62.80
2023-03-06T19:16:28.852Z,62.77
2023-03-06T19:19:20.891Z,62.70
2023-03-06T19:21:58.114Z,62.84
2023-03-06T19:24:46.876Z,63.06
2023-03-06T19:27:27.752Z,63.16
2023-03-06T19:30:25.374Z,63.14
2023-03-06T19:33:17.784Z,62.80
2023-03-06T19:36:12.264Z,62.88
2023-03-06T19:39:07.414Z,63.00
2023-03-06T19:41:59.484Z,63.03
2023-03-06T19:44:51.484Z,63.22
2023-03-06T19:47:43.434Z,63.39
2023-03-06T19:50:36.815Z,63.17
2023-03-06T19:53:14.056Z,63.43
2023-03-06T19:56:08.601Z,63.47
2023-03-06T19:59:00.613Z,63.38
2023-03-06T20:01:41.743Z,63.66
2023-03-06T20:04:17.041Z,63.53
2023-03-06T20:07:09.060Z,63.50
2023-03-06T20:09:50.128Z,63.57
2023-03-06T20:12:24.684Z,63.44
2023-03-06T20:14:59.210Z,63.22
2023-03-06T20:17:41.689Z,63.28
2023-03-06T20:20:16.547Z,63.22
2023-03-06T20:23:09.133Z,63.17
2023-03-06T20:26:04.462Z,63.01
2023-03-06T20:28:56.671Z,63.29
2023-03-06T20:31:49.062Z,63.15
2023-03-06T20:34:32.763Z,63.18
2023-03-06T20:37:24.741Z,62.92
2023-03-06T20:40:01.934Z,63.03
2023-03-06T20:42:54.465Z,62.96
2023-03-06T20:45:58.342Z,62.82
2023-03-06T20:48:33.375Z,62.94
2023-03-06T20:51:27.904Z,62.73
2023-03-06T20:54:20.120Z,62.57
2023-03-06T20:57:12.120Z,62.58
2023-03-06T21:00:04.591Z,62.58
2023-03-06T21:02:56.639Z,62.67
2023-03-06T21:05:50.068Z,62.53
2023-03-06T21:08:42.210Z,62.52
2023-03-06T21:11:34.793Z,62.45
2023-03-06T21:14:26.758Z,62.43
2023-03-06T21:17:18.831Z,62.54
2023-03-06T21:20:13.001Z,62.49
2023-03-06T21:23:05.003Z,62.34
2023-03-06T21:25:57.145Z,62.55
2023-03-06T21:28:49.361Z,62.55
2023-03-06T21:31:31.536Z,62.47
2023-03-06T21:34:19.887Z,62.46
2023-03-06T21:37:11.925Z,62.93
2023-03-06T21:40:06.614Z,63.02
2023-03-06T21:42:49.039Z,62.97
2023-03-06T21:45:33.200Z,63.02
2023-03-06T21:48:25.249Z,63.13
2023-03-06T21:51:19.875Z,63.35
2023-03-06T21:54:13.021Z,62.98
2023-03-06T21:57:05.436Z,63.20
2023-03-06T21:59:57.480Z,63.11
2023-03-06T22:02:49.537Z,62.99
2023-03-06T22:05:41.803Z,62.86
2023-03-06T22:08:33.886Z,63.00
2023-03-06T22:11:16.570Z,62.74
2023-03-06T22:13:53.177Z,62.56
2023-03-06T22:16:56.708Z,62.54
2023-03-06T22:19:35.711Z,62.72
2023-03-06T22:22:28.180Z,62.62
2023-03-06T22:25:20.235Z,62.77
2023-03-06T22:28:13.060Z,62.90
2023-03-06T22:31:10.750Z,62.95
2023-03-06T22:34:03.339Z,63.09
2023-03-06T22:36:55.348Z,63.02
2023-03-06T22:39:47.427Z,63.24
2023-03-06T22:42:39.441Z,63.09
2023-03-06T22:45:34.735Z,63.28
2023-03-06T22:48:26.788Z,63.21
2023-03-06T22:51:05.838Z,63.23
2023-03-06T22:53:58.163Z,63.30
2023-03-06T22:56:30.000Z,63.28
2023-03-06T22:59:02.175Z,63.36
2023-03-06T23:01:39.379Z,63.56
2023-03-06T23:04:31.501Z,63.36
2023-03-06T23:07:23.761Z,63.31
2023-03-06T23:10:15.812Z,63.21
2023-03-06T23:13:07.962Z,63.42
2023-03-06T23:16:02.225Z,63.33
2023-03-06T23:18:54.956Z,63.34
2023-03-06T23:21:47.007Z,63.56
2023-03-06T23:24:39.274Z,63.42
2023-03-06T23:27:31.405Z,63.49
2023-03-06T23:30:23.369Z,63.71
2023-03-06T23:33:15.311Z,63.65
2023-03-06T23:36:10.174Z,63.64
2023-03-06T23:39:02.285Z,63.84
2023-03-06T23:41:54.218Z,63.82
2023-03-06T23:44:46.307Z,63.84
2023-03-06T23:47:38.357Z,63.78
2023-03-06T23:50:30.428Z,63.77
2023-03-06T23:53:23.321Z,63.80
2023-03-06T23:56:16.022Z,63.79
2023-03-06T23:59:08.134Z,64.02
